createdAt,value
2022-09-20T00:01:36.006Z,0.43
2022-09-20T00:04:07.026Z,0.50
2022-09-20T00:06:36.652Z,0.30
2022-09-20T00:09:07.307Z,0.73
2022-09-20T00:11:37.147Z,0.60
2022-09-20T00:14:08.821Z,0.65
2022-09-20T00:16:41.290Z,0.43
2022-09-20T00:19:17.782Z,0.30
2022-09-20T00:21:46.672Z,0.55
2022-09-20T00:24:16.806Z,1.13
2022-09-20T00:26:45.549Z,0.30
2022-09-20T00:29:14.322Z,0.30
2022-09-20T00:31:43.307Z,0.68
2022-09-20T00:34:30.323Z,0.22
2022-09-20T00:36:59.139Z,0.57
2022-09-20T00:39:29.336Z,0.40
2022-09-20T00:41:58.204Z,0.30
2022-09-20T00:44:50.950Z,0.20
2022-09-20T00:47:29.294Z,0.22
2022-09-20T00:50:03.521Z,0.50
2022-09-20T00:52:33.658Z,0.43
2022-09-20T00:55:08.358Z,0.60
2022-09-20T00:57:39.187Z,0.60
2022-09-20T01:00:10.268Z,0.35
2022-09-20T01:02:43.254Z,0.60
2022-09-20T01:05:14.958Z,0.55
2022-09-20T01:07:45.329Z,0.75
2022-09-20T01:10:15.639Z,0.25
2022-09-20T01:12:46.258Z,0.50
2022-09-20T01:15:16.030Z,0.60
2022-09-20T01:17:49.175Z,0.70
2022-09-20T01:20:22.569Z,0.30
2022-09-20T01:23:17.098Z,0.50
2022-09-20T01:26:13.467Z,0.20
2022-09-20T01:28:47.889Z,0.25
2022-09-20T01:31:23.016Z,0.70
2022-09-20T01:36:26.929Z,0.57
2022-09-20T01:39:07.025Z,0.50
2022-09-20T01:41:43.172Z,0.38
2022-09-20T01:44:18.503Z,0.10
2022-09-20T01:49:33.990Z,0.40
2022-09-20T01:52:36.471Z,0.60
2022-09-20T01:55:58.865Z,0.30
2022-09-20T01:59:07.260Z,0.55
2022-09-20T02:02:07.639Z,0.30
2022-09-20T02:04:59.291Z,0.60
2022-09-20T02:07:49.105Z,0.20
2022-09-20T02:10:40.108Z,0.38
2022-09-20T02:13:12.254Z,0.88
2022-09-20T02:16:02.480Z,0.40
2022-09-20T02:18:48.716Z,0.65
2022-09-20T02:21:30.662Z,0.70
2022-09-20T02:24:11.654Z,0.57
2022-09-20T02:26:49.509Z,0.47
2022-09-20T02:29:31.229Z,0.50
2022-09-20T02:32:18.671Z,0.60
2022-09-20T02:35:13.636Z,0.70
2022-09-20T02:37:56.484Z,0.85
2022-09-20T02:40:40.534Z,0.60
2022-09-20T02:43:25.396Z,0.50
2022-09-20T02:46:02.576Z,0.70
2022-09-20T02:48:40.241Z,0.50
2022-09-20T02:51:21.637Z,0.40
2022-09-20T02:54:01.983Z,0.30
2022-09-20T02:56:40.132Z,0.68
2022-09-20T02:59:15.673Z,1.40
2022-09-20T03:01:51.718Z,1.70
2022-09-20T03:04:31.526Z,1.00
2022-09-20T03:07:11.438Z,0.70
2022-09-20T03:09:49.517Z,0.60
2022-09-20T03:12:27.567Z,0.63
2022-09-20T03:15:06.572Z,0.65
2022-09-20T03:17:45.364Z,0.70
2022-09-20T03:20:25.994Z,0.47
2022-09-20T03:23:09.018Z,0.40
2022-09-20T03:25:50.659Z,0.60
2022-09-20T03:28:35.685Z,0.63
2022-09-20T03:31:16.776Z,0.77
2022-09-20T03:33:55.128Z,0.40
2022-09-20T03:36:46.673Z,0.77
2022-09-20T03:39:35.032Z,0.80
2022-09-20T03:42:16.647Z,0.55
2022-09-20T03:45:07.609Z,0.60
2022-09-20T03:47:56.517Z,0.88
2022-09-20T03:50:42.351Z,1.23
2022-09-20T03:53:31.656Z,1.52
2022-09-20T03:56:24.276Z,0.82
2022-09-20T03:59:13.415Z,1.02
2022-09-20T04:02:15.718Z,0.47
2022-09-20T04:04:51.071Z,0.52
2022-09-20T04:07:24.729Z,0.70
2022-09-20T04:10:20.242Z,0.47
2022-09-20T04:13:05.332Z,1.25
2022-09-20T04:15:44.827Z,1.48
2022-09-20T04:18:24.617Z,2.42
2022-09-20T04:21:01.301Z,0.82
2022-09-20T04:23:48.460Z,0.68
2022-09-20T04:26:24.485Z,0.80
2022-09-20T04:28:58.596Z,0.90
2022-09-20T04:31:36.838Z,1.05
2022-09-20T04:34:12.148Z,1.00
2022-09-20T04:36:57.822Z,0.90
2022-09-20T04:42:42.906Z,0.77
2022-09-20T04:45:51.590Z,1.30
2022-09-20T04:48:51.568Z,1.05
2022-09-20T04:51:48.287Z,1.20
2022-09-20T04:54:56.182Z,1.15
2022-09-20T04:57:55.014Z,1.23
2022-09-20T05:00:25.728Z,1.15
2022-09-20T05:03:35.606Z,0.52
2022-09-20T05:06:50.847Z,0.50
2022-09-20T05:09:42.817Z,0.68
2022-09-20T05:12:37.227Z,1.08
2022-09-20T05:15:26.549Z,0.65
2022-09-20T05:18:15.915Z,0.98
2022-09-20T05:20:59.433Z,0.75
2022-09-20T05:23:47.805Z,0.98
2022-09-20T05:26:27.681Z,0.95
2022-09-20T05:29:03.582Z,0.75
2022-09-20T05:31:40.448Z,1.17
2022-09-20T05:34:21.644Z,1.45
2022-09-20T05:36:58.830Z,0.85
2022-09-20T05:39:40.304Z,0.90
2022-09-20T05:42:18.331Z,1.10
2022-09-20T05:45:02.957Z,0.98
2022-09-20T05:47:41.470Z,1.30
2022-09-20T05:50:33.454Z,1.95
2022-09-20T05:53:15.478Z,1.02
2022-09-20T05:56:01.970Z,1.20
2022-09-20T05:58:49.283Z,1.85
2022-09-20T06:01:24.486Z,1.08
2022-09-20T06:04:00.271Z,0.70
2022-09-20T06:06:32.887Z,1.00
2022-09-20T06:09:31.262Z,1.20
2022-09-20T06:12:25.034Z,0.63
2022-09-20T06:15:02.045Z,1.13
2022-09-20T06:17:38.555Z,1.05
2022-09-20T06:20:19.553Z,0.70
2022-09-20T06:22:52.941Z,1.00
2022-09-20T06:25:26.299Z,0.98
2022-09-20T06:28:00.497Z,0.77
2022-09-20T06:30:34.397Z,1.00
2022-09-20T06:33:15.858Z,0.65
2022-09-20T06:35:48.849Z,0.93
2022-09-20T06:38:59.329Z,0.73
2022-09-20T06:41:30.672Z,0.60
2022-09-20T06:44:04.092Z,4.13
2022-09-20T06:46:35.728Z,3.25
2022-09-20T06:49:08.311Z,0.63
2022-09-20T06:51:39.377Z,1.00
2022-09-20T06:54:15.655Z,0.60
2022-09-20T06:56:47.376Z,0.40
2022-09-20T06:59:17.733Z,0.77
2022-09-20T07:01:46.568Z,0.30
2022-09-20T07:04:15.360Z,0.43
2022-09-20T07:06:44.142Z,0.20
2022-09-20T07:09:13.137Z,0.70
2022-09-20T07:11:43.139Z,0.40
2022-09-20T07:14:11.979Z,2.05
2022-09-20T07:16:42.237Z,0.10
2022-09-20T07:19:11.235Z,0.10
2022-09-20T07:21:40.523Z,0.30
2022-09-20T07:24:09.408Z,0.28
2022-09-20T07:26:38.900Z,0.30
2022-09-20T07:29:08.004Z,0.20
2022-09-20T07:31:36.869Z,0.20
2022-09-20T07:34:07.117Z,0.20
2022-09-20T07:36:35.917Z,0.25
2022-09-20T07:39:04.830Z,0.20
2022-09-20T07:41:33.594Z,0.47
2022-09-20T07:44:20.992Z,0.20
2022-09-20T07:46:50.007Z,0.52
2022-09-20T07:49:21.425Z,0.43
2022-09-20T07:51:50.722Z,0.22
2022-09-20T07:54:19.861Z,0.50
2022-09-20T07:56:49.595Z,0.22
2022-09-20T07:59:18.420Z,0.25
2022-09-20T08:01:47.537Z,0.10
2022-09-20T08:04:16.512Z,0.40
2022-09-20T08:06:47.490Z,0.10
2022-09-20T08:09:16.279Z,0.10
2022-09-20T08:11:45.464Z,0.20
2022-09-20T08:14:15.506Z,0.10
2022-09-20T08:16:47.265Z,0.35
2022-09-20T08:19:19.077Z,0.20
2022-09-20T08:21:50.122Z,0.10
2022-09-20T08:24:19.125Z,0.22
2022-09-20T08:26:48.560Z,0.10
2022-09-20T08:29:17.371Z,0.20
2022-09-20T08:31:47.253Z,0.20
2022-09-20T08:34:17.740Z,0.25
2022-09-20T08:36:51.882Z,0.20
2022-09-20T08:42:18.582Z,0.13
2022-09-20T08:45:00.568Z,1.13
2022-09-20T08:47:32.173Z,0.10
2022-09-20T08:50:17.218Z,0.20
2022-09-20T08:52:49.917Z,0.47
2022-09-20T08:55:22.129Z,0.63
2022-09-20T08:57:53.356Z,0.30
2022-09-20T09:00:25.472Z,0.10
2022-09-20T09:02:57.387Z,0.45
2022-09-20T09:05:34.938Z,0.32
2022-09-20T09:08:16.091Z,0.32
2022-09-20T09:10:53.177Z,0.13
2022-09-20T09:13:33.017Z,0.10
2022-09-20T09:16:07.586Z,0.25
2022-09-20T09:18:38.840Z,0.60
2022-09-20T09:21:10.477Z,0.25
2022-09-20T09:23:43.187Z,0.20
2022-09-20T09:26:21.590Z,0.10
2022-09-20T09:29:11.151Z,0.03
2022-09-20T09:31:40.222Z,0.28
2022-09-20T09:34:27.208Z,0.60
2022-09-20T09:36:56.773Z,0.32
2022-09-20T09:39:29.408Z,0.15
2022-09-20T09:42:01.134Z,0.43
2022-09-20T09:44:32.872Z,0.30
2022-09-20T09:47:02.609Z,0.13
2022-09-20T09:49:36.204Z,0.20
2022-09-20T09:52:14.372Z,0.10
2022-09-20T09:54:49.057Z,0.10
2022-09-20T09:57:41.065Z,0.10
2022-09-20T10:00:20.913Z,0.00
2022-09-20T10:03:08.928Z,0.10
2022-09-20T10:05:45.367Z,0.15
2022-09-20T10:08:26.578Z,0.10
2022-09-20T10:11:11.546Z,0.10
2022-09-20T10:13:51.642Z,0.32
2022-09-20T10:16:31.528Z,0.10
2022-09-20T10:19:08.451Z,0.17
2022-09-20T10:21:49.330Z,0.10
2022-09-20T10:24:31.376Z,0.30
2022-09-20T10:27:22.596Z,1.10
2022-09-20T10:30:03.120Z,0.80
2022-09-20T10:32:52.602Z,0.20
2022-09-20T10:35:30.347Z,0.17
2022-09-20T10:38:14.278Z,0.50
2022-09-20T10:41:21.951Z,0.55
2022-09-20T10:44:09.945Z,0.68
2022-09-20T10:46:53.105Z,0.10
2022-09-20T10:49:28.943Z,0.10
2022-09-20T10:52:45.484Z,0.20
2022-09-20T10:55:32.249Z,0.10
2022-09-20T10:58:23.741Z,0.10
2022-09-20T11:01:02.384Z,0.10
2022-09-20T11:03:46.480Z,0.20
2022-09-20T11:06:19.822Z,0.20
2022-09-20T11:08:55.797Z,0.10
2022-09-20T11:11:31.487Z,0.10
2022-09-20T11:14:05.922Z,0.47
2022-09-20T11:16:42.002Z,0.07
2022-09-20T11:19:23.481Z,0.08
2022-09-20T11:21:58.549Z,0.20
2022-09-20T11:24:36.016Z,0.20
2022-09-20T11:27:13.767Z,0.20
2022-09-20T11:29:50.396Z,0.10
2022-09-20T11:32:28.558Z,0.20
2022-09-20T11:35:03.326Z,0.40
2022-09-20T11:37:37.353Z,0.52
2022-09-20T11:40:20.759Z,0.13
2022-09-20T11:42:52.680Z,0.30
2022-09-20T11:45:28.168Z,0.20
2022-09-20T11:48:03.661Z,0.63
2022-09-20T11:51:16.880Z,1.38
2022-09-20T11:54:07.123Z,0.35
2022-09-20T11:56:36.014Z,0.50
2022-09-20T11:59:09.227Z,0.52
2022-09-20T12:01:39.943Z,0.50
2022-09-20T12:04:31.742Z,0.13
2022-09-20T12:07:08.352Z,0.20
2022-09-20T12:09:41.969Z,0.10
2022-09-20T12:12:20.623Z,0.10
2022-09-20T12:14:56.402Z,0.20
2022-09-20T12:18:06.793Z,0.20
2022-09-20T12:21:04.709Z,0.20
2022-09-20T12:24:10.494Z,0.10
2022-09-20T12:26:51.346Z,0.00
2022-09-20T12:30:05.015Z,0.10
2022-09-20T12:32:57.373Z,0.10
2022-09-20T12:36:16.694Z,0.10
2022-09-20T12:39:02.215Z,0.00
2022-09-20T12:41:51.139Z,0.10
2022-09-20T12:44:27.006Z,0.35
2022-09-20T12:46:58.945Z,0.25
2022-09-20T12:49:56.416Z,0.20
2022-09-20T12:52:53.859Z,0.00
2022-09-20T12:55:49.845Z,0.20
2022-09-20T12:58:23.857Z,0.10
2022-09-20T13:01:30.490Z,0.65
2022-09-20T13:04:36.735Z,0.40
2022-09-20T13:07:35.004Z,0.10
2022-09-20T13:10:16.963Z,0.25
2022-09-20T13:12:51.463Z,0.20
2022-09-20T13:15:24.205Z,0.20
2022-09-20T13:17:56.494Z,0.10
2022-09-20T13:20:29.927Z,0.20
2022-09-20T13:23:00.597Z,0.13
2022-09-20T13:25:29.959Z,0.10
2022-09-20T13:28:08.410Z,0.20
2022-09-20T13:30:40.563Z,0.08
2022-09-20T13:33:23.667Z,0.10
2022-09-20T13:35:56.979Z,0.20
2022-09-20T13:38:30.087Z,0.40
2022-09-20T13:41:09.069Z,0.63
2022-09-20T13:43:42.991Z,0.20
2022-09-20T13:46:14.311Z,0.10
2022-09-20T13:48:43.720Z,0.15
2022-09-20T13:51:20.673Z,0.30
2022-09-20T13:53:49.481Z,0.32
2022-09-20T13:56:22.554Z,0.40
2022-09-20T13:58:53.096Z,0.10
2022-09-20T14:01:29.782Z,0.82
2022-09-20T14:04:06.492Z,0.40
2022-09-20T14:06:36.478Z,0.73
2022-09-20T14:09:11.017Z,0.30
2022-09-20T14:11:41.115Z,1.02
2022-09-20T14:14:19.885Z,0.40
2022-09-20T14:16:52.986Z,0.20
2022-09-20T14:19:26.899Z,0.50
2022-09-20T14:21:57.734Z,0.40
2022-09-20T14:24:35.418Z,0.75
2022-09-20T14:27:17.600Z,0.38
2022-09-20T14:29:50.637Z,0.40
2022-09-20T14:32:41.004Z,0.30
2022-09-20T14:35:18.264Z,0.80
2022-09-20T14:37:50.876Z,0.20
2022-09-20T14:40:26.123Z,0.68
2022-09-20T14:45:30.453Z,0.10
2022-09-20T14:48:08.050Z,0.50
2022-09-20T14:50:40.976Z,0.50
2022-09-20T14:53:27.845Z,0.28
2022-09-20T14:56:08.240Z,0.40
2022-09-20T14:59:10.428Z,0.52
2022-09-20T15:01:45.000Z,0.95
2022-09-20T15:04:21.517Z,0.30
2022-09-20T15:06:52.292Z,0.20
2022-09-20T15:09:22.722Z,0.60
2022-09-20T15:12:02.702Z,0.28
2022-09-20T15:14:36.990Z,0.20
2022-09-20T15:17:08.430Z,0.20
2022-09-20T15:19:37.286Z,0.22
2022-09-20T15:22:06.105Z,0.30
2022-09-20T15:24:34.954Z,0.40
2022-09-20T15:27:03.861Z,0.13
2022-09-20T15:29:32.843Z,0.20
2022-09-20T15:32:02.876Z,0.30
2022-09-20T15:34:33.486Z,0.30
2022-09-20T15:37:02.341Z,0.17
2022-09-20T15:39:31.096Z,0.10
2022-09-20T15:41:59.858Z,0.30
2022-09-20T15:44:28.778Z,0.40
2022-09-20T15:46:57.651Z,0.40
2022-09-20T15:49:26.860Z,0.25
2022-09-20T15:51:57.209Z,0.70
2022-09-20T15:54:26.731Z,0.60
2022-09-20T15:56:55.566Z,0.30
2022-09-20T15:59:24.371Z,0.10
2022-09-20T16:01:53.165Z,0.22
2022-09-20T16:04:21.916Z,0.20
2022-09-20T18:33:33.348Z,2.55
2022-09-20T18:36:03.582Z,2.38
2022-09-20T18:38:33.716Z,1.55
2022-09-20T18:41:03.431Z,1.27
2022-09-20T18:43:35.554Z,1.38
2022-09-20T18:46:04.362Z,1.70
2022-09-20T18:48:35.062Z,1.38
2022-09-20T18:51:05.368Z,2.92
2022-09-20T18:53:36.667Z,3.80
2022-09-20T18:56:10.582Z,4.13
2022-09-20T18:58:40.070Z,5.22
2022-09-20T19:01:35.197Z,5.10
2022-09-20T19:04:22.285Z,1.83
2022-09-20T19:07:00.653Z,1.38
2022-09-20T19:09:40.780Z,1.90
2022-09-20T19:12:19.183Z,2.58
2022-09-20T19:15:12.704Z,2.00
2022-09-20T19:18:02.288Z,4.55
2022-09-20T19:20:38.663Z,2.40
2022-09-20T19:23:35.801Z,2.28
2022-09-20T19:26:09.891Z,1.25
2022-09-20T19:28:39.072Z,2.28
2022-09-20T19:31:15.690Z,1.55
2022-09-20T19:33:48.515Z,1.83
2022-09-20T19:36:21.915Z,1.10
2022-09-20T19:39:01.498Z,1.40
2022-09-20T19:41:46.234Z,1.30
2022-09-20T19:44:34.135Z,1.52
2022-09-20T19:47:14.850Z,1.42
2022-09-20T19:49:53.534Z,1.25
2022-09-20T19:52:24.461Z,1.65
2022-09-20T19:54:54.019Z,2.35
2022-09-20T19:57:24.994Z,1.55
2022-09-20T19:59:55.840Z,2.65
2022-09-20T20:02:25.238Z,2.53
2022-09-20T20:04:54.533Z,1.27
2022-09-20T20:07:34.683Z,1.40
2022-09-20T20:10:15.667Z,0.90
2022-09-20T20:12:51.217Z,0.85
2022-09-20T20:15:30.945Z,0.93
2022-09-20T20:18:07.831Z,1.00
2022-09-20T20:20:42.078Z,1.00
2022-09-20T20:23:40.737Z,2.17
2022-09-20T20:26:10.799Z,1.73
2022-09-20T20:28:39.688Z,2.70
2022-09-20T20:31:12.333Z,1.52
2022-09-20T20:33:41.741Z,2.13
2022-09-20T20:36:11.997Z,1.33
2022-09-20T20:38:46.416Z,1.45
2022-09-20T20:41:18.506Z,1.27
2022-09-20T20:43:48.026Z,1.48
2022-09-20T20:46:18.813Z,1.13
2022-09-20T20:48:48.425Z,1.63
2022-09-20T20:51:19.157Z,1.30
2022-09-20T20:53:50.673Z,1.48
2022-09-20T20:56:21.445Z,1.48
2022-09-20T20:58:50.511Z,1.08
2022-09-20T21:01:21.034Z,1.23
2022-09-20T21:03:51.744Z,1.08
2022-09-20T21:06:21.235Z,1.48
2022-09-20T21:08:51.401Z,2.55
2022-09-20T21:11:21.970Z,1.92
2022-09-20T21:13:51.443Z,2.22
2022-09-20T21:16:21.849Z,1.98
2022-09-20T21:18:51.680Z,2.13
2022-09-20T21:21:23.108Z,1.75
2022-09-20T21:23:55.087Z,2.13
2022-09-20T21:26:25.236Z,1.65
2022-09-20T21:28:59.118Z,1.95
2022-09-20T21:31:29.333Z,1.92
2022-09-20T21:33:58.464Z,2.45
2022-09-20T21:36:29.202Z,1.98
2022-09-20T21:38:59.326Z,1.63
2022-09-20T21:41:30.419Z,2.05
2022-09-20T21:44:01.208Z,2.20
2022-09-20T21:46:31.651Z,1.95
2022-09-20T21:49:01.984Z,2.65
2022-09-20T21:51:31.554Z,1.70
2022-09-20T21:54:02.921Z,2.83
2022-09-20T21:56:33.950Z,5.00
2022-09-20T21:59:04.315Z,3.53
2022-09-20T22:01:35.104Z,2.38
2022-09-20T22:04:07.083Z,1.92
2022-09-20T22:06:37.618Z,2.25
2022-09-20T22:09:09.638Z,1.65
2022-09-20T22:11:40.881Z,2.58
2022-09-20T22:14:10.976Z,2.78
2022-09-20T22:16:41.709Z,1.55
2022-09-20T22:19:11.860Z,2.30
2022-09-20T22:21:43.086Z,1.80
2022-09-20T22:24:14.832Z,1.45
2022-09-20T22:26:46.199Z,1.85
2022-09-20T22:29:15.924Z,1.85
2022-09-20T22:31:46.697Z,1.80
2022-09-20T22:34:17.400Z,1.40
2022-09-20T22:36:46.287Z,1.88
2022-09-20T22:39:17.126Z,1.33
2022-09-20T22:41:47.988Z,1.30
2022-09-20T22:44:17.048Z,1.90
2022-09-20T22:46:45.767Z,1.65
2022-09-20T22:49:14.600Z,1.00
2022-09-20T22:51:43.326Z,1.20
2022-09-20T22:54:13.786Z,1.30
2022-09-20T22:56:43.977Z,1.30
2022-09-20T22:59:14.878Z,1.67
2022-09-20T23:01:45.501Z,1.20
2022-09-20T23:04:16.611Z,1.13
2022-09-20T23:06:48.177Z,1.52
2022-09-20T23:09:18.836Z,1.33
2022-09-20T23:11:49.501Z,1.25
2022-09-20T23:14:19.747Z,1.50
2022-09-20T23:16:49.169Z,1.17
2022-09-20T23:19:18.667Z,1.02
2022-09-20T23:21:47.746Z,1.30
2022-09-20T23:24:17.240Z,2.05
2022-09-20T23:26:46.309Z,1.30
2022-09-20T23:29:18.112Z,1.63
2022-09-20T23:31:48.632Z,1.13
2022-09-20T23:34:18.002Z,1.08
2022-09-20T23:36:47.810Z,1.42
2022-09-20T23:39:17.163Z,1.25
2022-09-20T23:41:50.592Z,1.30
2022-09-20T23:44:21.497Z,1.30
2022-09-20T23:46:50.258Z,1.33
2022-09-20T23:49:19.052Z,1.67
2022-09-20T23:51:47.880Z,0.95
2022-09-20T23:54:16.638Z,1.80
2022-09-20T23:56:46.169Z,1.15
2022-09-20T23:59:15.362Z,1.65
